Taiheimaru — JM6135 — position and weather

sailwx.info

Track history (hours):
 
Tides and Currents Weather Stations Pressure Air Temp Water Temp Dewpoint Dewpoint Depression Visibility Wind Speed Wind Dir Waves Ship Positions

Taiheimaru

Last reported at 2014-Dec-18 15:28 UTC. Time now 2014-Dec-19 08:00 UTC.
Position N 34°37' E 134°58'.

Length 78 m.

Type: Cargo ship. MMSI: 431400082.

Date/timePositionNaut miles runAvg speedWind from/ knotsBaromVisibWave heightAir tempDewpointWater temp
2014-Dec-18 15:28N 34°37' E 134°58'7 7.8
2014-Dec-18 14:32N 34°36' E 135°07'1110.7
2014-Dec-18 13:32N 34°38' E 135°19'5 3.4
2014-Dec-18 12:10N 34°38' E 135°25'0 0.4
2014-Dec-18 11:33N 34°37' E 135°25'1010.5
2014-Dec-18 10:33N 34°35' E 135°13'1510.0
2014-Dec-18 09:03N 34°37' E 134°54'1 0.1
2014-Dec-17 12:17N 34°37' E 134°53'7 6.5
2014-Dec-17 11:15N 34°37' E 135°01'5 7.6
2014-Dec-17 10:33N 34°36' E 135°08'10 9.7
2014-Dec-17 09:33N 34°38' E 135°19'6 1.3
2014-Dec-17 04:32N 34°38' E 135°27'1 0.6
2014-Dec-17 03:05N 34°39' E 135°26'2 3.1
2014-Dec-17 02:31N 34°37' E 135°25'9 8.5
2014-Dec-17 01:29N 34°40' E 135°14'0 0.0
2014-Dec-17 00:33N 34°40' E 135°14'0 0.0
2014-Dec-16 23:33N 34°40' E 135°14'2 1.8
2014-Dec-16 22:30N 34°41' E 135°16'0 0.3
2014-Dec-16 21:33N 34°41' E 135°16'2 2.5
2014-Dec-16 20:33N 34°38' E 135°15'9 9.1
2014-Dec-16 19:32N 34°35' E 135°04'2 0.1
2014-Dec-15 08:33N 34°36' E 135°06'1311.1
2014-Dec-15 07:22N 34°39' E 135°22'2 1.1
2014-Dec-15 05:33N 34°38' E 135°24'8 6.8
2014-Dec-15 04:24N 34°39' E 135°15'0 0.0
2014-Dec-15 03:33N 34°39' E 135°15'0 0.0
2014-Dec-15 02:33N 34°39' E 135°15'2 2.4
2014-Dec-15 01:33N 34°41' E 135°13'0 0.0
2014-Dec-15 00:30N 34°41' E 135°13'0 0.0
2014-Dec-14 23:29N 34°41' E 135°13'0 0.0
2014-Dec-14 22:30N 34°41' E 135°13'0 0.0
2014-Dec-14 21:33N 34°41' E 135°13'0 0.0
2014-Dec-14 20:18N 34°41' E 135°13'0 0.0
2014-Dec-14 19:30N 34°41' E 135°13'0 0.0
2014-Dec-14 18:26N 34°41' E 135°13'0 0.0
2014-Dec-14 17:32N 34°41' E 135°13'0 0.0
2014-Dec-14 16:29N 34°41' E 135°13'0 0.0
2014-Dec-14 15:29N 34°41' E 135°13'0 0.0
2014-Dec-14 14:29N 34°41' E 135°13'0 0.0
2014-Dec-14 13:29N 34°41' E 135°13'0 0.0
2014-Dec-14 12:29N 34°41' E 135°13'0 0.0
2014-Dec-14 11:29N 34°41' E 135°13'0 0.0
2014-Dec-14 10:29N 34°41' E 135°13'0 0.0
2014-Dec-14 09:24N 34°41' E 135°13'0 0.0
2014-Dec-14 08:24N 34°41' E 135°13'0 0.0
2014-Dec-14 07:24N 34°41' E 135°13'0 0.0
2014-Dec-14 06:27N 34°41' E 135°13'0 0.0
2014-Dec-14 05:33N 34°41' E 135°13'0 0.0
2014-Dec-14 04:30N 34°41' E 135°13'0 0.0
2014-Dec-14 03:30N 34°41' E 135°13'0 0.0
2014-Dec-14 02:28N 34°41' E 135°13'4 3.9
2014-Dec-14 01:32N 34°38' E 135°15'1110.5
2014-Dec-14 00:31N 34°36' E 135°02'4 0.1
2014-Dec-12 05:30N 34°38' E 134°58'1010.8
2014-Dec-12 04:33N 34°37' E 135°10'1110.5
2014-Dec-12 03:31N 34°38' E 135°23'1 1.3
2014-Dec-12 02:24N 34°37' E 135°25'910.7
2014-Dec-12 01:33N 34°40' E 135°14'0 0.1
2014-Dec-12 00:31N 34°40' E 135°14'0 0.1
2014-Dec-11 23:33N 34°40' E 135°14'1 1.1
2014-Dec-11 22:33N 34°39' E 135°15'0 0.3
2014-Dec-11 21:33N 34°38' E 135°15'10 9.9
2014-Dec-11 20:33N 34°36' E 135°03'3 0.1
2014-Dec-10 04:19N 34°37' E 135°01'810.5
2014-Dec-10 03:32N 34°37' E 135°11'4 3.6
2014-Dec-10 02:32N 34°40' E 135°14'0 0.0
2014-Dec-10 01:31N 34°40' E 135°14'1 1.1
2014-Dec-10 00:29N 34°38' E 135°15'0 0.1
2014-Dec-09 23:32N 34°38' E 135°15'0 0.0
2014-Dec-09 22:29N 34°38' E 135°15'0 0.0
2014-Dec-09 21:29N 34°38' E 135°15'0 0.0
2014-Dec-09 20:29N 34°38' E 135°15'0 0.0
2014-Dec-09 19:28N 34°38' E 135°15'0 0.1
2014-Dec-09 18:24N 34°38' E 135°15'0 0.0
2014-Dec-09 17:15N 34°38' E 135°15'0 0.0
2014-Dec-09 16:30N 34°38' E 135°15'0 0.0
2014-Dec-09 15:30N 34°38' E 135°15'0 0.0
2014-Dec-09 14:24N 34°38' E 135°15'0 0.1
2014-Dec-09 13:33N 34°38' E 135°15'9 9.4
2014-Dec-09 12:33N 34°35' E 135°04'  
Track history (hours):
 
Tides and Currents Weather Stations Pressure Air Temp Water Temp Dewpoint Dewpoint Depression Visibility Wind Speed Wind Dir Waves Ship Positions

Taiheimaru

Last reported at 2014-Dec-18 15:28 UTC. Time now 2014-Dec-19 08:00 UTC.
Position N 34°37' E 134°58'.

Length 78 m.

Type: Cargo ship. MMSI: 431400082.

Date/timePositionNaut miles runAvg speedWind from/ knotsBaromVisibWave heightAir tempDewpointWater temp
2014-Dec-18 15:28N 34°37' E 134°58'7 7.8
2014-Dec-18 14:32N 34°36' E 135°07'1110.7
2014-Dec-18 13:32N 34°38' E 135°19'5 3.4
2014-Dec-18 12:10N 34°38' E 135°25'0 0.4
2014-Dec-18 11:33N 34°37' E 135°25'1010.5
2014-Dec-18 10:33N 34°35' E 135°13'1510.0
2014-Dec-18 09:03N 34°37' E 134°54'1 0.1
2014-Dec-17 12:17N 34°37' E 134°53'7 6.5
2014-Dec-17 11:15N 34°37' E 135°01'5 7.6
2014-Dec-17 10:33N 34°36' E 135°08'10 9.7
2014-Dec-17 09:33N 34°38' E 135°19'6 1.3
2014-Dec-17 04:32N 34°38' E 135°27'1 0.6
2014-Dec-17 03:05N 34°39' E 135°26'2 3.1
2014-Dec-17 02:31N 34°37' E 135°25'9 8.5
2014-Dec-17 01:29N 34°40' E 135°14'0 0.0
2014-Dec-17 00:33N 34°40' E 135°14'0 0.0
2014-Dec-16 23:33N 34°40' E 135°14'2 1.8
2014-Dec-16 22:30N 34°41' E 135°16'0 0.3
2014-Dec-16 21:33N 34°41' E 135°16'2 2.5
2014-Dec-16 20:33N 34°38' E 135°15'9 9.1
2014-Dec-16 19:32N 34°35' E 135°04'2 0.1
2014-Dec-15 08:33N 34°36' E 135°06'1311.1
2014-Dec-15 07:22N 34°39' E 135°22'2 1.1
2014-Dec-15 05:33N 34°38' E 135°24'8 6.8
2014-Dec-15 04:24N 34°39' E 135°15'0 0.0
2014-Dec-15 03:33N 34°39' E 135°15'0 0.0
2014-Dec-15 02:33N 34°39' E 135°15'2 2.4
2014-Dec-15 01:33N 34°41' E 135°13'0 0.0
2014-Dec-15 00:30N 34°41' E 135°13'0 0.0
2014-Dec-14 23:29N 34°41' E 135°13'0 0.0
2014-Dec-14 22:30N 34°41' E 135°13'0 0.0
2014-Dec-14 21:33N 34°41' E 135°13'0 0.0
2014-Dec-14 20:18N 34°41' E 135°13'0 0.0
2014-Dec-14 19:30N 34°41' E 135°13'0 0.0
2014-Dec-14 18:26N 34°41' E 135°13'0 0.0
2014-Dec-14 17:32N 34°41' E 135°13'0 0.0
2014-Dec-14 16:29N 34°41' E 135°13'0 0.0
2014-Dec-14 15:29N 34°41' E 135°13'0 0.0
2014-Dec-14 14:29N 34°41' E 135°13'0 0.0
2014-Dec-14 13:29N 34°41' E 135°13'0 0.0
2014-Dec-14 12:29N 34°41' E 135°13'0 0.0
2014-Dec-14 11:29N 34°41' E 135°13'0 0.0
2014-Dec-14 10:29N 34°41' E 135°13'0 0.0
2014-Dec-14 09:24N 34°41' E 135°13'0 0.0
2014-Dec-14 08:24N 34°41' E 135°13'0 0.0
2014-Dec-14 07:24N 34°41' E 135°13'0 0.0
2014-Dec-14 06:27N 34°41' E 135°13'0 0.0
2014-Dec-14 05:33N 34°41' E 135°13'0 0.0
2014-Dec-14 04:30N 34°41' E 135°13'0 0.0
2014-Dec-14 03:30N 34°41' E 135°13'0 0.0
2014-Dec-14 02:28N 34°41' E 135°13'4 3.9
2014-Dec-14 01:32N 34°38' E 135°15'1110.5
2014-Dec-14 00:31N 34°36' E 135°02'4 0.1
2014-Dec-12 05:30N 34°38' E 134°58'1010.8
2014-Dec-12 04:33N 34°37' E 135°10'1110.5
2014-Dec-12 03:31N 34°38' E 135°23'1 1.3
2014-Dec-12 02:24N 34°37' E 135°25'910.7
2014-Dec-12 01:33N 34°40' E 135°14'0 0.1
2014-Dec-12 00:31N 34°40' E 135°14'0 0.1
2014-Dec-11 23:33N 34°40' E 135°14'1 1.1
2014-Dec-11 22:33N 34°39' E 135°15'0 0.3
2014-Dec-11 21:33N 34°38' E 135°15'10 9.9
2014-Dec-11 20:33N 34°36' E 135°03'3 0.1
2014-Dec-10 04:19N 34°37' E 135°01'810.5
2014-Dec-10 03:32N 34°37' E 135°11'4 3.6
2014-Dec-10 02:32N 34°40' E 135°14'0 0.0
2014-Dec-10 01:31N 34°40' E 135°14'1 1.1
2014-Dec-10 00:29N 34°38' E 135°15'0 0.1
2014-Dec-09 23:32N 34°38' E 135°15'0 0.0
2014-Dec-09 22:29N 34°38' E 135°15'0 0.0
2014-Dec-09 21:29N 34°38' E 135°15'0 0.0
2014-Dec-09 20:29N 34°38' E 135°15'0 0.0
2014-Dec-09 19:28N 34°38' E 135°15'0 0.1
2014-Dec-09 18:24N 34°38' E 135°15'0 0.0
2014-Dec-09 17:15N 34°38' E 135°15'0 0.0
2014-Dec-09 16:30N 34°38' E 135°15'0 0.0
2014-Dec-09 15:30N 34°38' E 135°15'0 0.0
2014-Dec-09 14:24N 34°38' E 135°15'0 0.1
2014-Dec-09 13:33N 34°38' E 135°15'9 9.4
2014-Dec-09 12:33N 34°35' E 135°04'  

Dump ship's entire track history